sensor_id;sensor_type;location;lat;lon;timestamp;P1;durP1;ratioP1;P2;durP2;ratioP2
18239;SDS011;9244;50.828;4.718;2023-08-31T00:02:02;3.00;;;1.70;;
18239;SDS011;9244;50.828;4.718;2023-08-31T00:04:29;2.30;;;1.80;;
18239;SDS011;9244;50.828;4.718;2023-08-31T00:06:55;2.23;;;1.83;;
18239;SDS011;9244;50.828;4.718;2023-08-31T00:09:22;3.40;;;2.00;;
18239;SDS011;9244;50.828;4.718;2023-08-31T00:11:50;2.97;;;1.80;;
18239;SDS011;9244;50.828;4.718;2023-08-31T00:14:17;1.80;;;1.60;;
18239;SDS011;9244;50.828;4.718;2023-08-31T00:16:43;3.80;;;2.27;;
18239;SDS011;9244;50.828;4.718;2023-08-31T00:19:11;2.27;;;1.90;;
18239;SDS011;9244;50.828;4.718;2023-08-31T00:21:37;2.50;;;1.87;;
18239;SDS011;9244;50.828;4.718;2023-08-31T00:24:03;2.70;;;2.13;;
18239;SDS011;9244;50.828;4.718;2023-08-31T00:26:29;3.50;;;2.37;;
18239;SDS011;9244;50.828;4.718;2023-08-31T00:28:55;2.93;;;2.30;;
18239;SDS011;9244;50.828;4.718;2023-08-31T00:31:21;4.27;;;1.93;;
18239;SDS011;9244;50.828;4.718;2023-08-31T00:33:47;2.33;;;1.90;;
18239;SDS011;9244;50.828;4.718;2023-08-31T00:36:13;2.97;;;2.30;;
18239;SDS011;9244;50.828;4.718;2023-08-31T00:38:39;3.30;;;2.40;;
18239;SDS011;9244;50.828;4.718;2023-08-31T00:41:05;2.40;;;2.20;;
18239;SDS011;9244;50.828;4.718;2023-08-31T00:43:31;2.57;;;2.20;;
18239;SDS011;9244;50.828;4.718;2023-08-31T00:45:57;3.00;;;2.53;;
18239;SDS011;9244;50.828;4.718;2023-08-31T00:48:23;2.80;;;2.60;;
18239;SDS011;9244;50.828;4.718;2023-08-31T00:50:49;3.27;;;2.73;;
18239;SDS011;9244;50.828;4.718;2023-08-31T00:53:16;3.63;;;3.10;;
18239;SDS011;9244;50.828;4.718;2023-08-31T00:55:44;3.80;;;2.87;;
18239;SDS011;9244;50.828;4.718;2023-08-31T00:58:10;3.40;;;3.00;;
18239;SDS011;9244;50.828;4.718;2023-08-31T01:06:08;4.37;;;3.40;;
18239;SDS011;9244;50.828;4.718;2023-08-31T01:08:52;3.73;;;3.37;;
18239;SDS011;9244;50.828;4.718;2023-08-31T01:11:31;4.33;;;3.70;;
18239;SDS011;9244;50.828;4.718;2023-08-31T01:14:13;4.47;;;3.47;;
18239;SDS011;9244;50.828;4.718;2023-08-31T01:16:43;5.43;;;3.93;;
18239;SDS011;9244;50.828;4.718;2023-08-31T01:19:17;4.20;;;3.83;;
18239;SDS011;9244;50.828;4.718;2023-08-31T01:22:07;4.40;;;4.00;;
18239;SDS011;9244;50.828;4.718;2023-08-31T01:24:38;4.27;;;3.87;;
18239;SDS011;9244;50.828;4.718;2023-08-31T01:27:04;6.97;;;4.60;;
18239;SDS011;9244;50.828;4.718;2023-08-31T01:29:30;4.70;;;3.90;;
18239;SDS011;9244;50.828;4.718;2023-08-31T01:31:56;4.50;;;4.10;;
18239;SDS011;9244;50.828;4.718;2023-08-31T01:34:22;5.00;;;4.33;;
18239;SDS011;9244;50.828;4.718;2023-08-31T01:36:50;4.87;;;4.43;;
18239;SDS011;9244;50.828;4.718;2023-08-31T01:39:26;4.97;;;4.40;;
18239;SDS011;9244;50.828;4.718;2023-08-31T01:41:56;5.17;;;4.67;;
18239;SDS011;9244;50.828;4.718;2023-08-31T01:44:26;4.97;;;4.43;;
18239;SDS011;9244;50.828;4.718;2023-08-31T01:46:53;6.47;;;4.87;;
18239;SDS011;9244;50.828;4.718;2023-08-31T01:49:23;5.77;;;5.20;;
18239;SDS011;9244;50.828;4.718;2023-08-31T01:51:49;5.90;;;4.87;;
18239;SDS011;9244;50.828;4.718;2023-08-31T01:54:15;5.57;;;4.77;;
18239;SDS011;9244;50.828;4.718;2023-08-31T01:56:41;7.03;;;5.43;;
18239;SDS011;9244;50.828;4.718;2023-08-31T01:59:06;6.93;;;4.60;;
18239;SDS011;9244;50.828;4.718;2023-08-31T02:01:32;6.37;;;5.40;;
18239;SDS011;9244;50.828;4.718;2023-08-31T02:03:58;9.07;;;5.33;;
18239;SDS011;9244;50.828;4.718;2023-08-31T02:06:24;6.77;;;4.90;;
18239;SDS011;9244;50.828;4.718;2023-08-31T02:08:49;5.37;;;4.57;;
18239;SDS011;9244;50.828;4.718;2023-08-31T02:11:15;5.80;;;5.27;;
18239;SDS011;9244;50.828;4.718;2023-08-31T02:13:41;5.90;;;5.07;;
18239;SDS011;9244;50.828;4.718;2023-08-31T02:16:07;7.50;;;5.20;;
18239;SDS011;9244;50.828;4.718;2023-08-31T02:18:32;7.03;;;4.97;;
18239;SDS011;9244;50.828;4.718;2023-08-31T02:20:58;5.63;;;5.00;;
18239;SDS011;9244;50.828;4.718;2023-08-31T02:23:24;6.10;;;5.30;;
18239;SDS011;9244;50.828;4.718;2023-08-31T02:25:49;5.47;;;5.03;;
18239;SDS011;9244;50.828;4.718;2023-08-31T02:28:15;6.13;;;5.50;;
18239;SDS011;9244;50.828;4.718;2023-08-31T02:30:43;6.93;;;5.30;;
18239;SDS011;9244;50.828;4.718;2023-08-31T02:33:10;6.30;;;4.87;;
18239;SDS011;9244;50.828;4.718;2023-08-31T02:35:36;7.33;;;4.80;;
18239;SDS011;9244;50.828;4.718;2023-08-31T02:38:01;6.17;;;5.07;;
18239;SDS011;9244;50.828;4.718;2023-08-31T02:40:27;5.77;;;5.17;;
18239;SDS011;9244;50.828;4.718;2023-08-31T02:42:53;5.93;;;4.90;;
18239;SDS011;9244;50.828;4.718;2023-08-31T02:45:19;6.77;;;5.67;;
18239;SDS011;9244;50.828;4.718;2023-08-31T02:47:44;6.57;;;6.00;;
18239;SDS011;9244;50.828;4.718;2023-08-31T02:50:10;6.73;;;5.43;;
18239;SDS011;9244;50.828;4.718;2023-08-31T02:52:35;9.67;;;5.20;;
18239;SDS011;9244;50.828;4.718;2023-08-31T02:55:01;5.57;;;4.83;;
18239;SDS011;9244;50.828;4.718;2023-08-31T02:57:27;6.10;;;5.27;;
18239;SDS011;9244;50.828;4.718;2023-08-31T02:59:52;7.10;;;5.10;;
18239;SDS011;9244;50.828;4.718;2023-08-31T03:02:18;7.83;;;5.07;;
18239;SDS011;9244;50.828;4.718;2023-08-31T03:04:44;11.23;;;5.43;;
18239;SDS011;9244;50.828;4.718;2023-08-31T03:07:10;9.63;;;5.00;;
18239;SDS011;9244;50.828;4.718;2023-08-31T03:09:38;6.00;;;4.53;;
18239;SDS011;9244;50.828;4.718;2023-08-31T03:12:05;6.90;;;4.60;;
18239;SDS011;9244;50.828;4.718;2023-08-31T03:14:30;6.30;;;4.60;;
18239;SDS011;9244;50.828;4.718;2023-08-31T03:16:56;5.73;;;5.13;;
18239;SDS011;9244;50.828;4.718;2023-08-31T03:19:22;6.27;;;5.20;;
18239;SDS011;9244;50.828;4.718;2023-08-31T03:21:47;8.70;;;5.00;;
18239;SDS011;9244;50.828;4.718;2023-08-31T03:24:13;7.47;;;4.67;;
18239;SDS011;9244;50.828;4.718;2023-08-31T03:26:39;7.23;;;4.97;;
18239;SDS011;9244;50.828;4.718;2023-08-31T03:29:04;8.20;;;4.87;;
18239;SDS011;9244;50.828;4.718;2023-08-31T03:31:30;6.13;;;4.70;;
18239;SDS011;9244;50.828;4.718;2023-08-31T03:33:56;5.40;;;4.33;;
18239;SDS011;9244;50.828;4.718;2023-08-31T03:36:22;6.10;;;5.07;;
18239;SDS011;9244;50.828;4.718;2023-08-31T03:38:49;7.30;;;5.07;;
18239;SDS011;9244;50.828;4.718;2023-08-31T03:41:14;5.50;;;4.40;;
18239;SDS011;9244;50.828;4.718;2023-08-31T03:43:40;6.97;;;4.70;;
18239;SDS011;9244;50.828;4.718;2023-08-31T03:46:06;8.97;;;5.30;;
18239;SDS011;9244;50.828;4.718;2023-08-31T03:48:31;8.53;;;5.33;;
18239;SDS011;9244;50.828;4.718;2023-08-31T03:50:57;7.50;;;4.50;;
18239;SDS011;9244;50.828;4.718;2023-08-31T03:53:23;8.17;;;4.60;;
18239;SDS011;9244;50.828;4.718;2023-08-31T03:55:48;8.13;;;4.30;;
18239;SDS011;9244;50.828;4.718;2023-08-31T03:58:14;7.07;;;4.57;;
18239;SDS011;9244;50.828;4.718;2023-08-31T04:00:40;5.97;;;4.43;;
18239;SDS011;9244;50.828;4.718;2023-08-31T04:03:07;7.80;;;4.70;;
18239;SDS011;9244;50.828;4.718;2023-08-31T04:05:33;6.23;;;4.13;;
18239;SDS011;9244;50.828;4.718;2023-08-31T04:08:00;6.83;;;4.60;;
18239;SDS011;9244;50.828;4.718;2023-08-31T04:10:25;5.73;;;4.23;;
18239;SDS011;9244;50.828;4.718;2023-08-31T04:12:51;9.30;;;4.57;;
18239;SDS011;9244;50.828;4.718;2023-08-31T04:15:17;6.53;;;4.20;;
18239;SDS011;9244;50.828;4.718;2023-08-31T04:17:43;6.83;;;4.23;;
18239;SDS011;9244;50.828;4.718;2023-08-31T04:20:10;5.17;;;4.10;;
18239;SDS011;9244;50.828;4.718;2023-08-31T04:22:36;6.00;;;4.07;;
18239;SDS011;9244;50.828;4.718;2023-08-31T04:25:01;5.43;;;3.97;;
18239;SDS011;9244;50.828;4.718;2023-08-31T04:27:28;7.97;;;5.03;;
18239;SDS011;9244;50.828;4.718;2023-08-31T04:29:56;4.90;;;4.00;;
18239;SDS011;9244;50.828;4.718;2023-08-31T04:32:23;6.77;;;4.10;;
18239;SDS011;9244;50.828;4.718;2023-08-31T04:34:50;6.27;;;3.53;;
18239;SDS011;9244;50.828;4.718;2023-08-31T04:37:16;6.80;;;4.10;;
18239;SDS011;9244;50.828;4.718;2023-08-31T04:39:42;5.27;;;3.47;;
18239;SDS011;9244;50.828;4.718;2023-08-31T04:42:08;4.67;;;3.60;;
18239;SDS011;9244;50.828;4.718;2023-08-31T04:44:33;4.17;;;3.40;;
18239;SDS011;9244;50.828;4.718;2023-08-31T04:47:00;4.77;;;3.20;;
18239;SDS011;9244;50.828;4.718;2023-08-31T04:49:25;4.17;;;3.77;;
18239;SDS011;9244;50.828;4.718;2023-08-31T04:51:51;7.90;;;3.80;;
18239;SDS011;9244;50.828;4.718;2023-08-31T04:54:17;6.30;;;3.70;;
18239;SDS011;9244;50.828;4.718;2023-08-31T04:56:43;4.47;;;4.03;;
18239;SDS011;9244;50.828;4.718;2023-08-31T04:59:09;5.50;;;3.43;;
18239;SDS011;9244;50.828;4.718;2023-08-31T05:01:34;7.90;;;4.27;;
18239;SDS011;9244;50.828;4.718;2023-08-31T05:04:00;5.70;;;3.83;;
18239;SDS011;9244;50.828;4.718;2023-08-31T05:06:27;7.47;;;3.77;;
18239;SDS011;9244;50.828;4.718;2023-08-31T05:08:53;5.33;;;3.73;;
18239;SDS011;9244;50.828;4.718;2023-08-31T05:11:18;5.23;;;3.70;;
18239;SDS011;9244;50.828;4.718;2023-08-31T05:13:44;5.43;;;3.97;;
18239;SDS011;9244;50.828;4.718;2023-08-31T05:16:09;5.00;;;3.90;;
18239;SDS011;9244;50.828;4.718;2023-08-31T05:18:35;7.40;;;4.20;;
18239;SDS011;9244;50.828;4.718;2023-08-31T05:21:03;5.23;;;4.20;;
18239;SDS011;9244;50.828;4.718;2023-08-31T05:23:29;5.80;;;4.97;;
18239;SDS011;9244;50.828;4.718;2023-08-31T05:25:55;6.23;;;3.87;;
18239;SDS011;9244;50.828;4.718;2023-08-31T05:28:25;7.70;;;3.97;;
18239;SDS011;9244;50.828;4.718;2023-08-31T05:30:51;7.10;;;4.10;;
18239;SDS011;9244;50.828;4.718;2023-08-31T05:33:18;6.87;;;4.20;;
18239;SDS011;9244;50.828;4.718;2023-08-31T05:35:44;7.07;;;4.37;;
18239;SDS011;9244;50.828;4.718;2023-08-31T05:38:10;5.80;;;4.07;;
18239;SDS011;9244;50.828;4.718;2023-08-31T05:40:36;6.23;;;4.30;;
18239;SDS011;9244;50.828;4.718;2023-08-31T05:43:02;6.60;;;4.07;;
18239;SDS011;9244;50.828;4.718;2023-08-31T05:45:31;5.07;;;4.00;;
18239;SDS011;9244;50.828;4.718;2023-08-31T05:47:57;4.83;;;4.00;;
18239;SDS011;9244;50.828;4.718;2023-08-31T05:50:23;5.20;;;4.40;;
18239;SDS011;9244;50.828;4.718;2023-08-31T05:52:49;5.13;;;3.90;;
18239;SDS011;9244;50.828;4.718;2023-08-31T05:55:14;7.33;;;4.23;;
18239;SDS011;9244;50.828;4.718;2023-08-31T05:57:40;5.07;;;3.90;;
18239;SDS011;9244;50.828;4.718;2023-08-31T06:00:06;7.57;;;4.27;;
18239;SDS011;9244;50.828;4.718;2023-08-31T06:02:33;6.27;;;3.97;;
18239;SDS011;9244;50.828;4.718;2023-08-31T06:05:00;7.57;;;4.00;;
18239;SDS011;9244;50.828;4.718;2023-08-31T06:07:26;6.20;;;4.17;;
18239;SDS011;9244;50.828;4.718;2023-08-31T06:09:54;8.50;;;3.90;;
18239;SDS011;9244;50.828;4.718;2023-08-31T06:12:20;7.00;;;3.90;;
18239;SDS011;9244;50.828;4.718;2023-08-31T06:14:45;6.07;;;4.10;;
18239;SDS011;9244;50.828;4.718;2023-08-31T06:17:11;7.37;;;4.00;;
18239;SDS011;9244;50.828;4.718;2023-08-31T06:19:38;5.77;;;3.50;;
18239;SDS011;9244;50.828;4.718;2023-08-31T06:22:04;7.47;;;4.20;;
18239;SDS011;9244;50.828;4.718;2023-08-31T06:24:30;5.87;;;3.53;;
18239;SDS011;9244;50.828;4.718;2023-08-31T06:26:55;5.53;;;4.17;;
18239;SDS011;9244;50.828;4.718;2023-08-31T06:29:22;7.17;;;3.77;;
18239;SDS011;9244;50.828;4.718;2023-08-31T06:31:47;8.43;;;4.07;;
18239;SDS011;9244;50.828;4.718;2023-08-31T06:34:13;5.20;;;3.97;;
18239;SDS011;9244;50.828;4.718;2023-08-31T06:36:39;5.83;;;4.27;;
18239;SDS011;9244;50.828;4.718;2023-08-31T06:39:05;9.80;;;4.20;;
18239;SDS011;9244;50.828;4.718;2023-08-31T06:41:31;8.13;;;4.37;;
18239;SDS011;9244;50.828;4.718;2023-08-31T06:43:57;5.57;;;4.00;;
18239;SDS011;9244;50.828;4.718;2023-08-31T06:46:23;7.80;;;4.10;;
18239;SDS011;9244;50.828;4.718;2023-08-31T06:48:48;9.07;;;4.40;;
18239;SDS011;9244;50.828;4.718;2023-08-31T06:51:14;6.57;;;4.17;;
18239;SDS011;9244;50.828;4.718;2023-08-31T06:53:41;8.03;;;4.20;;
18239;SDS011;9244;50.828;4.718;2023-08-31T06:56:08;9.33;;;4.60;;
18239;SDS011;9244;50.828;4.718;2023-08-31T06:58:34;9.10;;;4.17;;
18239;SDS011;9244;50.828;4.718;2023-08-31T07:01:00;6.17;;;4.17;;
18239;SDS011;9244;50.828;4.718;2023-08-31T07:03:26;7.93;;;4.13;;
18239;SDS011;9244;50.828;4.718;2023-08-31T07:05:52;6.60;;;4.67;;
18239;SDS011;9244;50.828;4.718;2023-08-31T07:08:17;7.93;;;4.17;;
18239;SDS011;9244;50.828;4.718;2023-08-31T07:10:43;9.17;;;4.27;;
18239;SDS011;9244;50.828;4.718;2023-08-31T07:13:09;8.67;;;4.43;;
18239;SDS011;9244;50.828;4.718;2023-08-31T07:15:35;8.53;;;4.60;;
18239;SDS011;9244;50.828;4.718;2023-08-31T07:18:00;7.73;;;4.27;;
18239;SDS011;9244;50.828;4.718;2023-08-31T07:20:26;6.63;;;3.63;;
18239;SDS011;9244;50.828;4.718;2023-08-31T07:22:52;4.77;;;3.07;;
18239;SDS011;9244;50.828;4.718;2023-08-31T07:25:18;7.80;;;4.25;;
18239;SDS011;9244;50.828;4.718;2023-08-31T07:27:43;6.97;;;4.18;;
18239;SDS011;9244;50.828;4.718;2023-08-31T07:30:09;7.72;;;3.58;;
18239;SDS011;9244;50.828;4.718;2023-08-31T07:32:35;8.65;;;3.45;;
18239;SDS011;9244;50.828;4.718;2023-08-31T07:35:01;5.10;;;2.90;;
18239;SDS011;9244;50.828;4.718;2023-08-31T07:37:29;5.68;;;2.83;;
18239;SDS011;9244;50.828;4.718;2023-08-31T07:39:55;7.38;;;3.28;;
18239;SDS011;9244;50.828;4.718;2023-08-31T07:42:21;6.72;;;3.28;;
18239;SDS011;9244;50.828;4.718;2023-08-31T07:44:46;6.22;;;3.17;;
18239;SDS011;9244;50.828;4.718;2023-08-31T07:47:12;5.60;;;3.15;;
18239;SDS011;9244;50.828;4.718;2023-08-31T07:49:38;8.07;;;3.13;;
18239;SDS011;9244;50.828;4.718;2023-08-31T07:52:03;7.78;;;3.20;;
18239;SDS011;9244;50.828;4.718;2023-08-31T07:54:30;7.75;;;3.28;;
18239;SDS011;9244;50.828;4.718;2023-08-31T07:56:55;6.88;;;3.38;;
18239;SDS011;9244;50.828;4.718;2023-08-31T07:59:21;6.13;;;3.42;;
18239;SDS011;9244;50.828;4.718;2023-08-31T08:01:47;5.85;;;3.60;;
18239;SDS011;9244;50.828;4.718;2023-08-31T08:04:13;7.65;;;3.17;;
18239;SDS011;9244;50.828;4.718;2023-08-31T08:06:39;8.23;;;3.60;;
18239;SDS011;9244;50.828;4.718;2023-08-31T08:09:04;7.78;;;2.92;;
18239;SDS011;9244;50.828;4.718;2023-08-31T08:11:30;5.88;;;3.17;;
18239;SDS011;9244;50.828;4.718;2023-08-31T08:13:56;6.60;;;3.15;;
18239;SDS011;9244;50.828;4.718;2023-08-31T08:16:22;5.90;;;3.00;;
18239;SDS011;9244;50.828;4.718;2023-08-31T08:18:49;7.63;;;3.53;;
18239;SDS011;9244;50.828;4.718;2023-08-31T08:21:15;7.10;;;3.10;;
18239;SDS011;9244;50.828;4.718;2023-08-31T08:23:41;5.90;;;3.33;;
18239;SDS011;9244;50.828;4.718;2023-08-31T08:26:06;9.07;;;3.13;;
18239;SDS011;9244;50.828;4.718;2023-08-31T08:28:32;6.78;;;3.25;;
18239;SDS011;9244;50.828;4.718;2023-08-31T08:31:00;4.40;;;2.80;;
18239;SDS011;9244;50.828;4.718;2023-08-31T08:33:28;7.68;;;3.80;;
18239;SDS011;9244;50.828;4.718;2023-08-31T08:35:57;6.95;;;3.05;;
18239;SDS011;9244;50.828;4.718;2023-08-31T08:38:23;8.05;;;2.90;;
18239;SDS011;9244;50.828;4.718;2023-08-31T08:40:50;7.82;;;3.10;;
18239;SDS011;9244;50.828;4.718;2023-08-31T08:43:15;6.45;;;3.28;;
18239;SDS011;9244;50.828;4.718;2023-08-31T08:45:53;7.95;;;3.90;;
18239;SDS011;9244;50.828;4.718;2023-08-31T08:48:19;10.85;;;3.80;;
18239;SDS011;9244;50.828;4.718;2023-08-31T08:50:46;8.82;;;3.42;;
18239;SDS011;9244;50.828;4.718;2023-08-31T08:53:13;8.75;;;3.92;;
18239;SDS011;9244;50.828;4.718;2023-08-31T08:55:43;6.78;;;3.83;;
18239;SDS011;9244;50.828;4.718;2023-08-31T08:58:08;7.97;;;3.90;;
18239;SDS011;9244;50.828;4.718;2023-08-31T09:00:35;8.55;;;3.67;;
18239;SDS011;9244;50.828;4.718;2023-08-31T09:03:01;6.28;;;3.70;;
18239;SDS011;9244;50.828;4.718;2023-08-31T09:05:30;5.95;;;3.25;;
18239;SDS011;9244;50.828;4.718;2023-08-31T09:08:04;5.30;;;2.88;;
18239;SDS011;9244;50.828;4.718;2023-08-31T09:10:37;4.50;;;2.85;;
18239;SDS011;9244;50.828;4.718;2023-08-31T09:13:11;7.72;;;3.00;;
18239;SDS011;9244;50.828;4.718;2023-08-31T09:15:44;5.72;;;3.33;;
18239;SDS011;9244;50.828;4.718;2023-08-31T09:20:57;6.35;;;3.03;;
18239;SDS011;9244;50.828;4.718;2023-08-31T09:23:23;5.72;;;3.17;;
18239;SDS011;9244;50.828;4.718;2023-08-31T09:25:50;6.82;;;3.28;;
18239;SDS011;9244;50.828;4.718;2023-08-31T09:28:22;5.25;;;2.63;;
18239;SDS011;9244;50.828;4.718;2023-08-31T09:30:51;3.95;;;2.75;;
18239;SDS011;9244;50.828;4.718;2023-08-31T09:33:18;4.00;;;2.15;;
18239;SDS011;9244;50.828;4.718;2023-08-31T09:35:56;4.95;;;2.75;;
18239;SDS011;9244;50.828;4.718;2023-08-31T09:38:22;5.50;;;2.38;;
18239;SDS011;9244;50.828;4.718;2023-08-31T09:40:48;6.53;;;2.70;;
18239;SDS011;9244;50.828;4.718;2023-08-31T09:43:20;6.85;;;3.17;;
18239;SDS011;9244;50.828;4.718;2023-08-31T09:45:48;3.85;;;2.50;;
18239;SDS011;9244;50.828;4.718;2023-08-31T09:48:15;4.75;;;2.47;;
18239;SDS011;9244;50.828;4.718;2023-08-31T09:50:42;4.85;;;2.60;;
18239;SDS011;9244;50.828;4.718;2023-08-31T09:53:10;2.92;;;2.10;;
18239;SDS011;9244;50.828;4.718;2023-08-31T09:55:38;5.05;;;2.45;;
18239;SDS011;9244;50.828;4.718;2023-08-31T09:58:05;6.07;;;2.60;;
18239;SDS011;9244;50.828;4.718;2023-08-31T10:00:32;6.25;;;2.80;;
18239;SDS011;9244;50.828;4.718;2023-08-31T10:03:02;2.85;;;2.45;;
18239;SDS011;9244;50.828;4.718;2023-08-31T10:05:30;4.47;;;2.83;;
18239;SDS011;9244;50.828;4.718;2023-08-31T10:07:59;4.63;;;2.75;;
18239;SDS011;9244;50.828;4.718;2023-08-31T10:10:26;5.35;;;2.70;;
18239;SDS011;9244;50.828;4.718;2023-08-31T10:12:54;4.57;;;2.08;;
18239;SDS011;9244;50.828;4.718;2023-08-31T10:15:20;4.13;;;2.08;;
18239;SDS011;9244;50.828;4.718;2023-08-31T10:17:46;4.88;;;2.55;;
18239;SDS011;9244;50.828;4.718;2023-08-31T10:20:12;4.88;;;2.58;;
18239;SDS011;9244;50.828;4.718;2023-08-31T10:22:41;8.35;;;2.33;;
18239;SDS011;9244;50.828;4.718;2023-08-31T10:25:07;3.97;;;2.20;;
18239;SDS011;9244;50.828;4.718;2023-08-31T10:27:43;3.65;;;2.13;;
18239;SDS011;9244;50.828;4.718;2023-08-31T10:35:52;4.43;;;2.00;;
18239;SDS011;9244;50.828;4.718;2023-08-31T10:38:24;5.38;;;1.98;;
18239;SDS011;9244;50.828;4.718;2023-08-31T10:41:37;5.53;;;2.47;;
18239;SDS011;9244;50.828;4.718;2023-08-31T10:43:46;5.70;;;2.17;;
18239;SDS011;9244;50.828;4.718;2023-08-31T10:46:35;4.20;;;2.10;;
18239;SDS011;9244;50.828;4.718;2023-08-31T10:51:42;3.42;;;1.80;;
18239;SDS011;9244;50.828;4.718;2023-08-31T10:54:10;3.10;;;1.80;;
18239;SDS011;9244;50.828;4.718;2023-08-31T10:59:41;3.67;;;1.98;;
18239;SDS011;9244;50.828;4.718;2023-08-31T11:05:12;6.03;;;2.35;;
18239;SDS011;9244;50.828;4.718;2023-08-31T11:07:42;4.80;;;2.00;;
18239;SDS011;9244;50.828;4.718;2023-08-31T11:10:16;3.83;;;2.03;;
18239;SDS011;9244;50.828;4.718;2023-08-31T11:12:51;4.25;;;2.30;;
18239;SDS011;9244;50.828;4.718;2023-08-31T11:15:19;4.70;;;1.98;;
18239;SDS011;9244;50.828;4.718;2023-08-31T11:17:46;4.65;;;1.95;;
18239;SDS011;9244;50.828;4.718;2023-08-31T11:20:15;5.38;;;1.98;;
18239;SDS011;9244;50.828;4.718;2023-08-31T11:22:42;2.65;;;1.70;;
18239;SDS011;9244;50.828;4.718;2023-08-31T11:25:11;3.50;;;1.75;;
18239;SDS011;9244;50.828;4.718;2023-08-31T11:27:38;7.65;;;2.08;;
18239;SDS011;9244;50.828;4.718;2023-08-31T11:30:10;2.53;;;1.90;;
18239;SDS011;9244;50.828;4.718;2023-08-31T11:32:46;5.05;;;2.03;;
18239;SDS011;9244;50.828;4.718;2023-08-31T11:35:14;3.00;;;1.90;;
18239;SDS011;9244;50.828;4.718;2023-08-31T11:37:42;5.75;;;2.15;;
18239;SDS011;9244;50.828;4.718;2023-08-31T11:40:09;8.85;;;2.15;;
18239;SDS011;9244;50.828;4.718;2023-08-31T11:42:35;9.65;;;2.50;;
18239;SDS011;9244;50.828;4.718;2023-08-31T11:45:02;5.70;;;2.10;;
18239;SDS011;9244;50.828;4.718;2023-08-31T11:47:30;4.05;;;1.92;;
18239;SDS011;9244;50.828;4.718;2023-08-31T11:49:56;5.88;;;2.20;;
18239;SDS011;9244;50.828;4.718;2023-08-31T11:52:23;5.43;;;2.08;;
18239;SDS011;9244;50.828;4.718;2023-08-31T11:54:51;6.63;;;2.30;;
18239;SDS011;9244;50.828;4.718;2023-08-31T11:57:18;3.50;;;2.00;;
18239;SDS011;9244;50.828;4.718;2023-08-31T11:59:50;4.57;;;1.92;;
18239;SDS011;9244;50.828;4.718;2023-08-31T12:02:18;3.60;;;2.20;;
18239;SDS011;9244;50.828;4.718;2023-08-31T12:04:44;3.72;;;2.10;;
18239;SDS011;9244;50.828;4.718;2023-08-31T12:07:16;6.00;;;1.90;;
18239;SDS011;9244;50.828;4.718;2023-08-31T12:09:44;3.72;;;1.40;;
18239;SDS011;9244;50.828;4.718;2023-08-31T12:12:11;3.28;;;1.77;;
18239;SDS011;9244;50.828;4.718;2023-08-31T12:14:39;3.33;;;1.90;;
18239;SDS011;9244;50.828;4.718;2023-08-31T12:17:06;4.13;;;1.70;;
18239;SDS011;9244;50.828;4.718;2023-08-31T12:19:33;3.92;;;1.48;;
18239;SDS011;9244;50.828;4.718;2023-08-31T12:22:02;4.68;;;1.75;;
18239;SDS011;9244;50.828;4.718;2023-08-31T12:24:29;4.10;;;1.85;;
18239;SDS011;9244;50.828;4.718;2023-08-31T12:26:54;3.13;;;1.50;;
18239;SDS011;9244;50.828;4.718;2023-08-31T12:29:23;4.75;;;1.63;;
18239;SDS011;9244;50.828;4.718;2023-08-31T12:31:49;3.92;;;1.67;;
18239;SDS011;9244;50.828;4.718;2023-08-31T12:34:15;2.53;;;1.65;;
18239;SDS011;9244;50.828;4.718;2023-08-31T12:36:41;6.07;;;1.83;;
18239;SDS011;9244;50.828;4.718;2023-08-31T12:39:07;3.90;;;1.92;;
18239;SDS011;9244;50.828;4.718;2023-08-31T12:41:38;4.20;;;1.70;;
18239;SDS011;9244;50.828;4.718;2023-08-31T12:44:04;3.30;;;2.17;;
18239;SDS011;9244;50.828;4.718;2023-08-31T12:46:31;3.75;;;1.70;;
18239;SDS011;9244;50.828;4.718;2023-08-31T12:48:58;3.42;;;1.50;;
18239;SDS011;9244;50.828;4.718;2023-08-31T12:51:25;3.83;;;1.80;;
18239;SDS011;9244;50.828;4.718;2023-08-31T12:53:51;3.88;;;1.58;;
18239;SDS011;9244;50.828;4.718;2023-08-31T12:56:17;4.25;;;1.70;;
18239;SDS011;9244;50.828;4.718;2023-08-31T12:58:52;6.95;;;1.90;;
18239;SDS011;9244;50.828;4.718;2023-08-31T13:01:18;3.88;;;1.67;;
18239;SDS011;9244;50.828;4.718;2023-08-31T13:03:45;2.67;;;1.50;;
18239;SDS011;9244;50.828;4.718;2023-08-31T13:06:15;4.03;;;1.42;;
18239;SDS011;9244;50.828;4.718;2023-08-31T13:08:44;4.18;;;2.75;;
18239;SDS011;9244;50.828;4.718;2023-08-31T13:11:11;3.15;;;1.85;;
18239;SDS011;9244;50.828;4.718;2023-08-31T13:13:38;3.17;;;1.40;;
18239;SDS011;9244;50.828;4.718;2023-08-31T13:16:04;3.38;;;1.42;;
18239;SDS011;9244;50.828;4.718;2023-08-31T13:18:30;3.08;;;1.42;;
18239;SDS011;9244;50.828;4.718;2023-08-31T13:20:55;2.58;;;1.30;;
18239;SDS011;9244;50.828;4.718;2023-08-31T13:23:22;3.72;;;1.65;;
18239;SDS011;9244;50.828;4.718;2023-08-31T13:25:48;2.58;;;1.42;;
18239;SDS011;9244;50.828;4.718;2023-08-31T13:28:15;2.95;;;1.70;;
18239;SDS011;9244;50.828;4.718;2023-08-31T13:30:41;4.03;;;1.52;;
18239;SDS011;9244;50.828;4.718;2023-08-31T13:33:07;4.80;;;2.10;;
18239;SDS011;9244;50.828;4.718;2023-08-31T13:35:33;2.83;;;1.70;;
18239;SDS011;9244;50.828;4.718;2023-08-31T13:38:00;5.72;;;1.80;;
18239;SDS011;9244;50.828;4.718;2023-08-31T13:40:26;2.20;;;1.40;;
18239;SDS011;9244;50.828;4.718;2023-08-31T13:42:55;2.33;;;1.55;;
18239;SDS011;9244;50.828;4.718;2023-08-31T13:45:24;2.95;;;1.23;;
18239;SDS011;9244;50.828;4.718;2023-08-31T13:47:50;3.80;;;1.80;;
18239;SDS011;9244;50.828;4.718;2023-08-31T13:50:16;3.35;;;1.45;;
18239;SDS011;9244;50.828;4.718;2023-08-31T13:52:42;2.35;;;1.42;;
18239;SDS011;9244;50.828;4.718;2023-08-31T13:55:07;3.53;;;1.77;;
18239;SDS011;9244;50.828;4.718;2023-08-31T13:57:33;2.65;;;1.55;;
18239;SDS011;9244;50.828;4.718;2023-08-31T13:59:59;2.67;;;1.67;;
18239;SDS011;9244;50.828;4.718;2023-08-31T14:02:25;4.75;;;1.70;;
18239;SDS011;9244;50.828;4.718;2023-08-31T14:04:51;3.65;;;1.90;;
18239;SDS011;9244;50.828;4.718;2023-08-31T14:07:17;3.33;;;1.65;;
18239;SDS011;9244;50.828;4.718;2023-08-31T14:09:43;3.03;;;1.70;;
18239;SDS011;9244;50.828;4.718;2023-08-31T14:12:09;3.25;;;2.10;;
18239;SDS011;9244;50.828;4.718;2023-08-31T14:14:34;4.55;;;1.95;;
18239;SDS011;9244;50.828;4.718;2023-08-31T14:17:00;3.67;;;1.80;;
18239;SDS011;9244;50.828;4.718;2023-08-31T14:19:26;5.05;;;1.90;;
18239;SDS011;9244;50.828;4.718;2023-08-31T14:21:52;3.03;;;1.73;;
18239;SDS011;9244;50.828;4.718;2023-08-31T14:24:18;4.40;;;2.10;;
18239;SDS011;9244;50.828;4.718;2023-08-31T14:26:44;2.75;;;1.75;;
18239;SDS011;9244;50.828;4.718;2023-08-31T14:29:10;3.85;;;1.80;;
18239;SDS011;9244;50.828;4.718;2023-08-31T14:31:36;5.10;;;2.47;;
18239;SDS011;9244;50.828;4.718;2023-08-31T14:34:02;2.60;;;1.83;;
18239;SDS011;9244;50.828;4.718;2023-08-31T14:36:28;7.30;;;2.70;;
18239;SDS011;9244;50.828;4.718;2023-08-31T14:38:53;3.55;;;1.92;;
18239;SDS011;9244;50.828;4.718;2023-08-31T14:41:19;4.35;;;2.35;;
18239;SDS011;9244;50.828;4.718;2023-08-31T14:43:45;4.90;;;2.45;;
18239;SDS011;9244;50.828;4.718;2023-08-31T14:46:10;4.65;;;2.63;;
18239;SDS011;9244;50.828;4.718;2023-08-31T14:48:36;5.88;;;2.35;;
18239;SDS011;9244;50.828;4.718;2023-08-31T14:51:02;5.43;;;2.40;;
18239;SDS011;9244;50.828;4.718;2023-08-31T14:53:28;5.95;;;2.42;;
18239;SDS011;9244;50.828;4.718;2023-08-31T14:55:54;4.55;;;2.67;;
18239;SDS011;9244;50.828;4.718;2023-08-31T14:58:20;3.95;;;2.20;;
18239;SDS011;9244;50.828;4.718;2023-08-31T15:00:45;5.15;;;2.15;;
18239;SDS011;9244;50.828;4.718;2023-08-31T15:03:11;5.20;;;2.17;;
18239;SDS011;9244;50.828;4.718;2023-08-31T15:05:37;6.35;;;2.30;;
18239;SDS011;9244;50.828;4.718;2023-08-31T15:08:06;5.55;;;2.20;;
18239;SDS011;9244;50.828;4.718;2023-08-31T15:10:32;6.72;;;2.20;;
18239;SDS011;9244;50.828;4.718;2023-08-31T15:12:58;4.35;;;2.20;;
18239;SDS011;9244;50.828;4.718;2023-08-31T15:15:27;6.13;;;2.30;;
18239;SDS011;9244;50.828;4.718;2023-08-31T15:17:53;5.85;;;2.28;;
18239;SDS011;9244;50.828;4.718;2023-08-31T15:20:20;4.28;;;2.17;;
18239;SDS011;9244;50.828;4.718;2023-08-31T15:22:46;6.20;;;2.35;;